Time;durP1;ratioP1;P1;durP2;ratioP2;P2;SDS_P1;SDS_P2;PMS_P1;PMS_P2;Temp;Humidity;BMP_temperature;BMP_pressure;BME280_temperature;BME280_humidity;BME280_pressure;Samples;Min_cycle;Max_cycle;Signal;HPM_P1;HPM_P2
2021/06/01 00:01:46;;;;;;;2.83;2.63;;;18.50;85.70;;;;;;5047950;28;20062;-79
2021/06/01 00:04:13;;;;;;;3.28;2.80;;;18.40;85.60;;;;;;5049025;28;20017;-79
2021/06/01 00:06:39;;;;;;;3.00;2.80;;;18.40;85.70;;;;;;5047834;28;20029;-79
2021/06/01 00:09:10;;;;;;;2.80;2.60;;;18.40;85.60;;;;;;5048680;28;20506;-79
2021/06/01 00:11:37;;;;;;;2.83;2.20;;;18.40;85.80;;;;;;5046886;28;20029;-79
2021/06/01 00:14:04;;;;;;;2.70;2.50;;;18.40;85.80;;;;;;5047960;28;20029;-79
2021/06/01 00:16:30;;;;;;;3.72;2.40;;;18.30;85.90;;;;;;5043486;28;20013;-79
2021/06/01 00:18:57;;;;;;;2.90;2.70;;;18.40;86.10;;;;;;5047907;28;20025;-79
2021/06/01 00:21:23;;;;;;;3.95;2.38;;;18.40;85.70;;;;;;5047794;28;20100;-79
2021/06/01 00:23:52;;;;;;;2.85;2.63;;;18.40;85.50;;;;;;5040459;28;20025;-79
2021/06/01 00:26:18;;;;;;;2.53;2.42;;;18.40;85.50;;;;;;5026643;28;20388;-79
2021/06/01 00:28:45;;;;;;;3.00;2.60;;;18.40;85.40;;;;;;5026603;28;20454;-79
2021/06/01 00:31:11;;;;;;;3.92;2.47;;;18.40;86.00;;;;;;5027704;28;20145;-79
2021/06/01 00:33:38;;;;;;;2.50;2.40;;;18.40;86.40;;;;;;5027511;28;20046;-79
2021/06/01 00:36:04;;;;;;;2.53;2.40;;;18.40;86.40;;;;;;5026543;28;20030;-79
2021/06/01 00:38:30;;;;;;;3.03;2.75;;;18.40;86.60;;;;;;5026324;28;20021;-79
2021/06/01 00:40:57;;;;;;;5.40;2.47;;;18.50;86.80;;;;;;5027617;28;20094;-79
2021/06/01 00:43:23;;;;;;;3.03;2.83;;;18.50;87.00;;;;;;5027853;28;20111;-79
2021/06/01 00:45:49;;;;;;;3.13;2.28;;;18.50;87.50;;;;;;5026310;28;20396;-79
2021/06/01 00:48:15;;;;;;;4.80;2.70;;;18.50;87.00;;;;;;5028754;28;20036;-79
2021/06/01 00:50:41;;;;;;;3.38;2.65;;;18.60;86.40;;;;;;5031031;28;20071;-79
2021/06/01 00:53:08;;;;;;;7.07;2.95;;;18.60;86.60;;;;;;5031089;28;20037;-79
2021/06/01 00:55:34;;;;;;;2.50;2.30;;;18.60;86.70;;;;;;5049452;28;20063;-79
2021/06/01 00:58:00;;;;;;;3.72;2.47;;;18.60;86.90;;;;;;5050925;28;20013;-79
2021/06/01 01:02:52;;;;;;;3.10;2.60;;;18.50;86.60;;;;;;5050697;28;20032;-79
2021/06/01 01:05:19;;;;;;;5.10;2.97;;;18.50;87.00;;;;;;5050740;28;20017;-79
2021/06/01 01:08:05;;;;;;;4.65;2.85;;;18.50;86.90;;;;;;5049572;28;20372;-79
2021/06/01 01:10:33;;;;;;;2.17;2.08;;;18.50;86.70;;;;;;5049268;28;20071;-79
2021/06/01 01:13:04;;;;;;;3.42;2.50;;;18.50;86.30;;;;;;5050444;28;20021;-79
2021/06/01 01:15:33;;;;;;;3.17;2.95;;;18.50;86.40;;;;;;5049041;28;20077;-79
2021/06/01 01:18:04;;;;;;;2.70;2.25;;;18.50;86.60;;;;;;5050434;28;20021;-79
2021/06/01 01:20:45;;;;;;;3.38;2.65;;;18.50;86.60;;;;;;5048990;28;20021;-79
2021/06/01 01:23:21;;;;;;;2.95;2.63;;;18.40;86.60;;;;;;5050521;28;20070;-79
2021/06/01 01:26:00;;;;;;;2.85;2.65;;;18.40;87.10;;;;;;5049008;28;20116;-79
2021/06/01 01:28:44;;;;;;;4.07;2.13;;;18.30;87.90;;;;;;5049050;28;20033;-79
2021/06/01 01:31:25;;;;;;;3.85;2.50;;;18.30;88.00;;;;;;5048992;28;20471;-79
2021/06/01 01:33:52;;;;;;;2.58;2.40;;;18.30;88.70;;;;;;5048617;28;20049;-79
2021/06/01 01:36:19;;;;;;;2.28;2.17;;;18.40;88.00;;;;;;5050332;28;20021;-79
2021/06/01 01:38:46;;;;;;;2.80;2.63;;;18.40;88.30;;;;;;5050246;28;20021;-79
2021/06/01 01:41:14;;;;;;;5.00;2.67;;;18.30;88.50;;;;;;5049972;28;20051;-79
2021/06/01 01:43:43;;;;;;;2.60;2.40;;;18.40;88.80;;;;;;5050046;28;20108;-79
2021/06/01 01:46:22;;;;;;;2.65;2.17;;;18.30;89.40;;;;;;5048772;28;20093;-79
2021/06/01 01:48:59;;;;;;;3.45;3.15;;;18.30;89.50;;;;;;5049936;28;20031;-79
2021/06/01 01:51:36;;;;;;;4.22;2.50;;;18.30;89.30;;;;;;5049965;28;20032;-79
2021/06/01 01:54:23;;;;;;;3.33;2.63;;;18.30;89.20;;;;;;5049772;28;20025;-79
2021/06/01 01:56:53;;;;;;;2.63;2.40;;;18.30;89.40;;;;;;5049525;27;20034;-79
2021/06/01 01:59:22;;;;;;;2.30;2.20;;;18.30;89.20;;;;;;5049661;28;20392;-79
2021/06/01 02:01:50;;;;;;;2.50;2.30;;;18.30;89.30;;;;;;5048442;28;20025;-79
2021/06/01 02:04:23;;;;;;;3.53;2.33;;;18.30;89.60;;;;;;5049817;28;20025;-79
2021/06/01 02:06:49;;;;;;;2.58;2.28;;;18.30;90.20;;;;;;5048505;28;20024;-79
2021/06/01 02:09:15;;;;;;;2.45;2.25;;;18.30;90.80;;;;;;5049603;28;20030;-79
2021/06/01 02:11:41;;;;;;;2.83;2.60;;;18.30;91.00;;;;;;5048284;28;20033;-79
2021/06/01 02:14:08;;;;;;;2.78;2.58;;;18.20;90.90;;;;;;5049426;28;20388;-79
2021/06/01 02:16:37;;;;;;;3.83;2.90;;;18.30;90.80;;;;;;5048382;28;20040;-79
2021/06/01 02:19:09;;;;;;;7.32;3.15;;;18.20;90.80;;;;;;5048201;28;20124;-79
2021/06/01 02:24:24;;;;;;;2.33;1.83;;;18.10;91.20;;;;;;5064497;27;20058;-79
2021/06/01 02:27:20;;;;;;;2.50;2.30;;;18.10;91.30;;;;;;5049371;28;20275;-79
2021/06/01 02:30:06;;;;;;;2.55;2.35;;;18.10;91.20;;;;;;5049283;28;20040;-79
2021/06/01 02:32:50;;;;;;;2.08;1.98;;;18.10;91.20;;;;;;5049353;28;20471;-79
2021/06/01 02:35:25;;;;;;;2.90;2.70;;;18.00;91.10;;;;;;5049045;28;20047;-79
2021/06/01 02:37:53;;;;;;;2.55;2.35;;;18.00;91.10;;;;;;5047782;28;20174;-79
2021/06/01 02:40:21;;;;;;;3.10;2.70;;;18.00;91.30;;;;;;5047982;28;20017;-79
2021/06/01 02:42:48;;;;;;;2.75;2.55;;;18.00;91.50;;;;;;5047931;28;20027;-79
2021/06/01 02:45:17;;;;;;;2.45;2.35;;;18.00;91.40;;;;;;5049172;28;20082;-79
2021/06/01 02:47:44;;;;;;;2.42;2.22;;;18.00;90.90;;;;;;5047707;28;20021;-79
2021/06/01 02:50:12;;;;;;;2.60;2.40;;;18.00;90.80;;;;;;5048954;28;20124;-79
2021/06/01 02:52:40;;;;;;;2.75;2.35;;;17.90;90.60;;;;;;5047858;28;20097;-79
2021/06/01 02:55:08;;;;;;;3.95;2.45;;;18.00;90.80;;;;;;5031145;28;20025;-79
2021/06/01 02:57:34;;;;;;;2.22;2.10;;;17.90;90.80;;;;;;5029062;28;20029;-79
2021/06/01 03:00:00;;;;;;;2.53;2.38;;;17.90;90.90;;;;;;5028958;28;20026;-79
2021/06/01 03:02:29;;;;;;;2.95;2.45;;;17.90;90.60;;;;;;5029313;28;20018;-79
2021/06/01 03:04:55;;;;;;;2.60;2.40;;;17.90;90.60;;;;;;5029084;28;20399;-79
2021/06/01 03:07:22;;;;;;;6.38;2.65;;;17.80;90.60;;;;;;5028755;28;20032;-79
2021/06/01 03:09:48;;;;;;;2.55;2.40;;;17.90;90.60;;;;;;5027554;28;20033;-79
2021/06/01 03:14:49;;;;;;;4.63;2.08;;;17.80;90.80;;;;;;5028903;28;20034;-79
2021/06/01 03:17:15;;;;;;;2.95;2.35;;;17.80;90.70;;;;;;5028703;28;20029;-79
2021/06/01 03:19:41;;;;;;;2.65;2.47;;;17.70;90.50;;;;;;5028744;28;20063;-79
2021/06/01 03:22:07;;;;;;;2.65;2.45;;;17.70;90.70;;;;;;5028572;28;20025;-79
2021/06/01 03:24:33;;;;;;;2.25;2.15;;;17.70;90.80;;;;;;5039427;28;20101;-79
2021/06/01 03:26:59;;;;;;;2.72;2.53;;;17.70;90.60;;;;;;5047116;28;20055;-79
2021/06/01 03:29:25;;;;;;;3.35;2.47;;;17.80;90.20;;;;;;5047341;28;20032;-79
2021/06/01 03:31:50;;;;;;;2.42;2.22;;;17.80;90.20;;;;;;5048353;28;20017;-79
2021/06/01 03:34:16;;;;;;;2.83;2.60;;;17.80;90.40;;;;;;5048027;28;20419;-79
2021/06/01 03:36:42;;;;;;;2.85;2.35;;;17.70;90.50;;;;;;5048373;28;20478;-79
2021/06/01 03:39:08;;;;;;;3.10;2.58;;;17.70;90.40;;;;;;5047011;28;20029;-79
2021/06/01 03:41:35;;;;;;;2.85;2.65;;;17.70;90.30;;;;;;5047001;28;20029;-79
2021/06/01 03:44:02;;;;;;;4.28;2.30;;;17.60;90.30;;;;;;5047224;28;20029;-79
2021/06/01 03:46:27;;;;;;;2.50;2.30;;;17.60;89.80;;;;;;5047155;28;20017;-79
2021/06/01 03:48:53;;;;;;;3.50;2.50;;;17.60;89.60;;;;;;5048102;28;20036;-79
2021/06/01 03:51:19;;;;;;;2.53;2.10;;;17.70;89.00;;;;;;5048201;28;20373;-79
2021/06/01 03:53:47;;;;;;;3.35;2.30;;;17.70;88.90;;;;;;5046777;28;20456;-79
2021/06/01 03:56:13;;;;;;;2.47;2.28;;;17.70;89.70;;;;;;5048058;28;20116;-79
2021/06/01 03:58:39;;;;;;;4.95;2.30;;;17.60;90.10;;;;;;5046937;28;20029;-79
2021/06/01 04:01:06;;;;;;;3.83;2.17;;;17.70;90.10;;;;;;5047875;28;20062;-79
2021/06/01 04:03:34;;;;;;;2.72;2.00;;;17.60;89.90;;;;;;5046735;28;20078;-79
2021/06/01 04:06:00;;;;;;;4.35;2.72;;;17.60;90.00;;;;;;5046613;28;20507;-79
2021/06/01 04:08:26;;;;;;;2.45;2.25;;;17.60;90.00;;;;;;5048050;28;20025;-79
2021/06/01 04:10:51;;;;;;;3.28;2.20;;;17.60;89.70;;;;;;5047816;28;20055;-79
2021/06/01 04:13:18;;;;;;;3.88;2.97;;;17.60;89.50;;;;;;5047939;28;20026;-79
2021/06/01 04:15:43;;;;;;;2.72;2.53;;;17.70;89.50;;;;;;5047818;28;20026;-79
2021/06/01 04:18:09;;;;;;;5.32;2.17;;;17.70;88.90;;;;;;5047750;28;20077;-79
2021/06/01 04:20:35;;;;;;;2.58;2.38;;;17.60;89.10;;;;;;5043357;28;20369;-79
2021/06/01 04:23:01;;;;;;;4.53;2.13;;;17.60;89.50;;;;;;5048742;28;20021;-79
2021/06/01 04:25:27;;;;;;;3.30;2.38;;;17.70;89.30;;;;;;5051194;28;20033;-79
2021/06/01 04:27:53;;;;;;;1.90;1.80;;;17.70;89.20;;;;;;5050143;28;20029;-79
2021/06/01 04:30:19;;;;;;;3.53;2.47;;;17.60;89.90;;;;;;5049916;28;20085;-79
2021/06/01 04:32:45;;;;;;;3.15;2.90;;;17.70;90.00;;;;;;5051281;28;20037;-79
2021/06/01 04:35:11;;;;;;;2.72;2.53;;;17.60;89.70;;;;;;5049487;28;20068;-79
2021/06/01 04:37:37;;;;;;;2.30;2.20;;;17.70;90.00;;;;;;5051193;28;20017;-79
2021/06/01 04:40:10;;;;;;;4.05;2.20;;;17.70;89.40;;;;;;5049762;28;20033;-79
2021/06/01 04:42:36;;;;;;;6.53;2.63;;;17.70;89.30;;;;;;5051205;28;20027;-78
2021/06/01 04:45:01;;;;;;;7.75;1.85;;;17.70;89.80;;;;;;5050981;28;20099;-79
2021/06/01 04:47:27;;;;;;;10.25;2.35;;;17.70;90.10;;;;;;5049805;28;20482;-79
2021/06/01 04:49:53;;;;;;;2.67;1.95;;;17.70;89.90;;;;;;5050812;28;20105;-79
2021/06/01 04:52:19;;;;;;;2.47;2.28;;;17.70;89.20;;;;;;5049764;28;20033;-79
2021/06/01 04:54:45;;;;;;;2.60;2.40;;;17.70;89.60;;;;;;5049489;28;20025;-79
2021/06/01 04:57:11;;;;;;;5.05;2.70;;;17.70;89.10;;;;;;5051036;28;20021;-79
2021/06/01 04:59:40;;;;;;;2.00;1.90;;;17.80;88.70;;;;;;5045981;28;20025;-79
2021/06/01 05:02:06;;;;;;;2.58;2.38;;;17.80;88.30;;;;;;5042495;28;20021;-79
2021/06/01 05:04:32;;;;;;;3.00;2.30;;;17.80;88.70;;;;;;5038123;28;20039;-79
2021/06/01 05:06:59;;;;;;;1.80;1.70;;;17.90;89.00;;;;;;5030852;28;20029;-79
2021/06/01 05:09:25;;;;;;;4.00;2.08;;;17.90;88.80;;;;;;5030775;28;20117;-79
2021/06/01 05:11:51;;;;;;;3.38;2.28;;;18.00;88.70;;;;;;5030508;28;20384;-79
2021/06/01 05:14:17;;;;;;;2.70;2.20;;;18.00;88.80;;;;;;5029459;28;20082;-79
2021/06/01 05:16:43;;;;;;;2.85;2.00;;;18.00;89.00;;;;;;5029257;28;20525;-79
2021/06/01 05:19:09;;;;;;;2.55;2.40;;;18.00;88.60;;;;;;5029469;28;20125;-79
2021/06/01 05:21:35;;;;;;;2.63;2.42;;;18.10;87.80;;;;;;5030477;28;20473;-79
2021/06/01 05:24:01;;;;;;;2.63;2.42;;;18.10;87.20;;;;;;5041535;28;20027;-79
2021/06/01 05:26:27;;;;;;;2.47;2.25;;;18.20;86.30;;;;;;5049397;28;20468;-79
2021/06/01 05:28:53;;;;;;;3.17;2.40;;;18.10;86.60;;;;;;5048379;28;20048;-79
2021/06/01 05:31:24;;;;;;;3.08;2.15;;;18.20;88.30;;;;;;5048003;28;20056;-79
2021/06/01 05:34:05;;;;;;;2.97;2.33;;;18.20;88.20;;;;;;5047546;28;20123;-79
2021/06/01 05:36:30;;;;;;;3.13;2.17;;;18.30;88.90;;;;;;5049384;28;20377;-79
2021/06/01 05:38:56;;;;;;;5.07;2.88;;;18.40;87.40;;;;;;5049608;28;20036;-79
2021/06/01 05:41:22;;;;;;;3.42;2.75;;;18.40;88.70;;;;;;5048762;28;20018;-79
2021/06/01 05:43:48;;;;;;;3.22;2.90;;;18.40;89.30;;;;;;5048730;28;20025;-79
2021/06/01 05:46:13;;;;;;;3.33;2.63;;;18.40;89.00;;;;;;5050092;28;20021;-79
2021/06/01 05:48:39;;;;;;;3.85;3.30;;;18.40;89.60;;;;;;5050006;28;20021;-79
2021/06/01 05:51:05;;;;;;;2.78;2.40;;;18.40;89.70;;;;;;5048546;28;20036;-79
2021/06/01 05:53:32;;;;;;;2.45;2.25;;;18.50;90.00;;;;;;5048902;28;20029;-79
2021/06/01 05:55:58;;;;;;;3.13;2.83;;;18.50;88.60;;;;;;5049698;28;20025;-79
2021/06/01 05:58:24;;;;;;;4.78;2.53;;;18.50;88.20;;;;;;5049794;28;20111;-79
2021/06/01 06:00:50;;;;;;;3.03;2.75;;;18.60;88.70;;;;;;5048662;28;20024;-79
2021/06/01 06:03:17;;;;;;;3.22;2.28;;;18.70;88.80;;;;;;5049700;28;20495;-78
2021/06/01 06:05:43;;;;;;;4.68;2.42;;;18.70;87.50;;;;;;5048503;28;20049;-79
2021/06/01 06:08:12;;;;;;;7.78;2.83;;;18.70;88.80;;;;;;5048554;28;20085;-79
2021/06/01 06:10:39;;;;;;;3.40;2.50;;;18.70;89.90;;;;;;5049493;28;20025;-79
2021/06/01 06:13:06;;;;;;;2.67;2.47;;;18.70;90.10;;;;;;5048087;28;20405;-79
2021/06/01 06:15:32;;;;;;;3.47;2.47;;;18.80;89.10;;;;;;5049561;28;20476;-79
2021/06/01 06:18:04;;;;;;;4.03;2.75;;;18.90;89.80;;;;;;5048280;28;20056;-79
2021/06/01 06:20:33;;;;;;;2.80;2.60;;;18.90;88.50;;;;;;5046743;28;20453;-79
2021/06/01 06:23:00;;;;;;;3.28;2.75;;;19.00;88.70;;;;;;5038622;28;20025;-78
2021/06/01 06:25:26;;;;;;;2.25;2.15;;;19.10;88.20;;;;;;5048910;28;20029;-79
2021/06/01 06:27:52;;;;;;;2.78;2.58;;;19.20;87.20;;;;;;5049571;28;20127;-79
2021/06/01 06:30:18;;;;;;;2.85;2.65;;;19.30;87.20;;;;;;5050586;28;20073;-79
2021/06/01 06:32:45;;;;;;;4.80;2.47;;;19.40;88.60;;;;;;5049389;28;20402;-78
2021/06/01 06:35:11;;;;;;;2.83;2.63;;;19.40;87.20;;;;;;5050662;28;20127;-79
2021/06/01 06:37:37;;;;;;;4.05;2.85;;;19.40;86.70;;;;;;5049282;28;20025;-79
2021/06/01 06:40:07;;;;;;;4.82;2.40;;;19.50;87.10;;;;;;5050551;28;20126;-79
2021/06/01 06:42:33;;;;;;;3.92;2.25;;;19.50;85.00;;;;;;5049290;28;20032;-79
2021/06/01 06:44:59;;;;;;;2.10;1.90;;;19.60;83.30;;;;;;5050231;28;20028;-79
2021/06/01 06:47:40;;;;;;;2.10;2.00;;;19.60;80.20;;;;;;5050065;28;20025;-79
2021/06/01 06:50:12;;;;;;;5.65;2.10;;;19.70;81.70;;;;;;5050438;28;20040;-78
2021/06/01 06:52:37;;;;;;;2.20;1.98;;;19.70;82.20;;;;;;5049103;28;20021;-79
2021/06/01 06:55:05;;;;;;;2.72;1.63;;;19.80;81.70;;;;;;5048942;28;20126;-79
2021/06/01 06:57:31;;;;;;;1.88;1.77;;;19.80;78.80;;;;;;5047551;28;20041;-79
2021/06/01 06:59:57;;;;;;;2.33;2.17;;;19.90;78.90;;;;;;5047669;28;20057;-79
2021/06/01 07:02:26;;;;;;;5.93;1.85;;;19.90;75.90;;;;;;5048938;28;20025;-79
2021/06/01 07:04:52;;;;;;;1.67;1.58;;;20.00;74.80;;;;;;5049003;28;20392;-79
2021/06/01 07:07:17;;;;;;;1.70;1.60;;;20.00;75.90;;;;;;5047459;28;20033;-78
2021/06/01 07:09:43;;;;;;;2.63;1.50;;;20.00;71.80;;;;;;5047550;28;20029;-79
2021/06/01 07:12:09;;;;;;;1.70;1.60;;;20.00;70.30;;;;;;5048745;28;20021;-79
2021/06/01 07:14:45;;;;;;;2.20;2.10;;;20.00;71.00;;;;;;5047336;28;20041;-79
2021/06/01 07:17:11;;;;;;;3.15;2.00;;;20.10;71.80;;;;;;5047263;28;20029;-79
2021/06/01 07:19:37;;;;;;;2.38;2.05;;;20.00;70.90;;;;;;5049018;28;20044;-79
2021/06/01 07:22:03;;;;;;;1.85;1.75;;;20.00;71.80;;;;;;5048754;28;20060;-78
2021/06/01 07:24:29;;;;;;;3.03;2.05;;;19.90;72.10;;;;;;5048784;28;20479;-79
2021/06/01 07:26:55;;;;;;;2.17;1.70;;;20.00;72.60;;;;;;5048921;28;20108;-79
2021/06/01 07:29:20;;;;;;;4.68;2.30;;;20.00;71.60;;;;;;5047249;28;20028;-79
2021/06/01 07:31:49;;;;;;;2.08;1.98;;;19.90;71.20;;;;;;5047104;28;20400;-79
2021/06/01 07:34:16;;;;;;;2.28;2.17;;;19.90;72.20;;;;;;5046856;28;20101;-78
2021/06/01 07:36:41;;;;;;;2.03;1.90;;;20.00;73.30;;;;;;5047229;28;20478;-78
2021/06/01 07:39:10;;;;;;;2.10;1.92;;;20.00;72.40;;;;;;5048447;28;20105;-79
2021/06/01 07:41:36;;;;;;;2.42;2.15;;;20.00;70.00;;;;;;5048332;28;20029;-80
2021/06/01 07:44:03;;;;;;;3.78;2.00;;;20.00;70.90;;;;;;5047065;28;20158;-80
2021/06/01 07:46:30;;;;;;;5.05;2.30;;;20.00;72.40;;;;;;5043336;28;20029;-78
2021/06/01 07:48:57;;;;;;;3.33;2.22;;;20.00;71.30;;;;;;5036608;28;20040;-79
2021/06/01 07:51:29;;;;;;;4.10;2.20;;;20.10;72.00;;;;;;5037808;28;20481;-79
2021/06/01 07:54:05;;;;;;;2.05;1.95;;;20.10;72.70;;;;;;5036493;28;20021;-79
2021/06/01 07:56:35;;;;;;;3.10;2.88;;;20.20;73.70;;;;;;5036442;28;20484;-78
2021/06/01 07:59:01;;;;;;;4.60;3.00;;;20.20;71.00;;;;;;5041346;28;20032;-79
2021/06/01 08:01:26;;;;;;;2.42;2.25;;;20.30;74.70;;;;;;5039328;28;20240;-78
2021/06/01 08:03:52;;;;;;;5.72;3.67;;;20.40;74.10;;;;;;5040527;28;20025;-78
2021/06/01 08:06:18;;;;;;;2.30;2.20;;;20.40;72.20;;;;;;5041216;28;20056;-78
2021/06/01 08:08:44;;;;;;;2.30;2.10;;;20.40;72.00;;;;;;5039970;28;20024;-78
2021/06/01 08:11:10;;;;;;;2.08;1.98;;;20.50;71.70;;;;;;5039563;28;20104;-79
2021/06/01 08:13:36;;;;;;;2.25;2.05;;;20.40;71.00;;;;;;5038719;28;20057;-79
2021/06/01 08:16:03;;;;;;;2.10;1.90;;;20.40;69.60;;;;;;5042212;27;20132;-78
2021/06/01 08:18:33;;;;;;;2.78;2.58;;;20.50;69.30;;;;;;5040456;28;20025;-79
2021/06/01 08:21:09;;;;;;;2.80;2.33;;;20.40;66.70;;;;;;5043015;28;20469;-78
2021/06/01 08:23:35;;;;;;;2.28;2.17;;;20.40;66.80;;;;;;5040334;28;20073;-79
2021/06/01 08:26:03;;;;;;;5.93;2.00;;;20.50;67.70;;;;;;5039990;28;20021;-78
2021/06/01 08:28:29;;;;;;;2.80;1.90;;;20.50;67.20;;;;;;5038793;28;20395;-78
2021/06/01 08:30:54;;;;;;;2.05;1.83;;;20.60;67.00;;;;;;5039066;28;20089;-79
2021/06/01 08:33:21;;;;;;;1.80;1.70;;;20.60;65.00;;;;;;5038463;28;20045;-78
2021/06/01 08:35:47;;;;;;;2.10;1.90;;;20.60;65.30;;;;;;5039236;28;20026;-78
2021/06/01 08:38:15;;;;;;;2.40;2.20;;;20.60;64.80;;;;;;5041096;28;20053;-78
2021/06/01 08:40:41;;;;;;;2.08;1.88;;;20.70;66.00;;;;;;5039471;28;20013;-78
2021/06/01 08:43:27;;;;;;;1.98;1.88;;;20.70;65.10;;;;;;5041579;28;20117;-78
2021/06/01 08:45:56;;;;;;;3.30;2.20;;;20.80;70.50;;;;;;5039444;28;20548;-78
2021/06/01 08:48:22;;;;;;;1.90;1.80;;;21.00;70.80;;;;;;5039371;28;20411;-78
2021/06/01 08:50:50;;;;;;;2.08;1.92;;;21.10;71.90;;;;;;5038783;28;20514;-78
2021/06/01 08:53:17;;;;;;;3.85;2.13;;;21.10;69.90;;;;;;5037943;28;20021;-78
2021/06/01 08:55:44;;;;;;;3.13;1.95;;;21.30;70.20;;;;;;5039403;28;20543;-78
2021/06/01 08:58:21;;;;;;;2.08;1.98;;;21.30;70.10;;;;;;5037908;28;20041;-78
2021/06/01 09:00:48;;;;;;;2.83;2.28;;;21.30;64.70;;;;;;5036351;28;20021;-78
2021/06/01 09:03:23;;;;;;;2.90;2.70;;;21.20;64.90;;;;;;5039171;28;20025;-80
2021/06/01 09:08:51;;;;;;;9.18;2.30;;;21.40;64.50;;;;;;5040410;28;20047;-80
2021/06/01 09:22:47;;;;;;;3.22;1.90;;;21.70;56.90;;;;;;5040375;28;20026;-78
2021/06/01 09:28:08;;;;;;;2.72;1.58;;;21.80;59.30;;;;;;5040186;28;20120;-79
2021/06/01 09:30:37;;;;;;;2.10;2.00;;;21.80;59.00;;;;;;5037803;28;20494;-79
2021/06/01 09:33:05;;;;;;;2.13;2.03;;;21.80;60.80;;;;;;5037721;28;20025;-79
2021/06/01 09:35:48;;;;;;;1.77;1.65;;;21.90;62.70;;;;;;5039455;28;20401;-79
2021/06/01 09:38:16;;;;;;;2.30;2.20;;;21.90;61.90;;;;;;5037898;28;20021;-79
2021/06/01 09:40:42;;;;;;;4.43;2.00;;;22.00;59.50;;;;;;5037416;28;20022;-79
2021/06/01 09:43:14;;;;;;;2.55;1.80;;;22.00;56.40;;;;;;5038867;28;20489;-79
2021/06/01 09:45:42;;;;;;;3.17;1.90;;;21.90;55.40;;;;;;5038551;28;20020;-79
2021/06/01 09:48:09;;;;;;;2.20;2.00;;;21.90;57.70;;;;;;5038350;28;20500;-79
2021/06/01 09:53:29;;;;;;;1.92;1.73;;;22.20;58.40;;;;;;5031726;28;20090;-79
2021/06/01 09:55:56;;;;;;;1.60;1.50;;;22.20;59.50;;;;;;5051193;28;20429;-78
2021/06/01 09:58:32;;;;;;;1.77;1.65;;;22.30;60.60;;;;;;5049578;28;20077;-79
2021/06/01 10:00:59;;;;;;;3.38;1.98;;;22.40;58.70;;;;;;5049426;28;20391;-79
2021/06/01 10:03:37;;;;;;;1.77;1.67;;;22.40;59.40;;;;;;5050242;28;20029;-79
2021/06/01 10:06:03;;;;;;;2.38;2.17;;;22.60;59.50;;;;;;5038296;28;20598;-79
2021/06/01 10:08:30;;;;;;;3.53;2.38;;;22.60;56.00;;;;;;5038933;28;20480;-79
2021/06/01 10:11:00;;;;;;;2.50;2.40;;;22.60;57.50;;;;;;5038150;28;20622;-79
2021/06/01 10:13:29;;;;;;;3.88;2.25;;;22.60;57.20;;;;;;5037060;28;20074;-79
2021/06/01 10:15:57;;;;;;;3.13;2.38;;;22.60;55.40;;;;;;5039344;28;20112;-79
2021/06/01 10:18:29;;;;;;;8.18;1.80;;;22.70;58.50;;;;;;5049768;28;20021;-79
2021/06/01 10:21:02;;;;;;;2.60;2.45;;;22.90;59.40;;;;;;5050138;28;20411;-79
2021/06/01 10:23:52;;;;;;;2.80;2.60;;;23.00;61.80;;;;;;5039731;28;20017;-78
2021/06/01 10:26:16;;;;;;;2.97;2.05;;;22.90;54.20;;;;;;5038890;28;20476;-79
2021/06/01 10:28:45;;;;;;;4.50;2.78;;;23.10;57.90;;;;;;5037365;28;20029;-79
2021/06/01 10:31:14;;;;;;;2.05;1.95;;;23.20;53.80;;;;;;5039003;28;20100;-79
2021/06/01 10:33:46;;;;;;;2.95;2.70;;;23.20;54.20;;;;;;5041376;28;20041;-79
2021/06/01 10:48:40;;;;;;;6.90;2.90;;;23.60;58.80;;;;;;5040547;28;20047;-79
2021/06/01 10:50:54;;;;;;;2.72;2.53;;;23.80;54.80;;;;;;5040691;28;20503;-79
2021/06/01 10:53:25;;;;;;;3.80;3.10;;;23.80;56.30;;;;;;5036746;27;20073;-79
2021/06/01 10:58:32;;;;;;;5.32;3.75;;;23.80;54.00;;;;;;5030622;28;20026;-78
2021/06/01 11:04:15;;;;;;;3.22;2.92;;;24.00;54.90;;;;;;5030473;28;20087;-78
2021/06/01 11:06:52;;;;;;;3.67;3.25;;;24.20;54.00;;;;;;5030459;28;20010;-79
2021/06/01 11:09:33;;;;;;;4.88;3.90;;;24.20;56.00;;;;;;5029191;28;20079;-78
2021/06/01 11:12:00;;;;;;;3.83;3.50;;;24.20;51.30;;;;;;5029029;28;20029;-78
2021/06/01 11:14:33;;;;;;;4.75;4.28;;;24.20;52.50;;;;;;5028876;28;20025;-79
2021/06/01 11:17:01;;;;;;;4.13;3.80;;;24.10;49.70;;;;;;5028880;28;20480;-79
2021/06/01 11:19:56;;;;;;;4.28;3.60;;;24.10;51.70;;;;;;5030060;28;20504;-79
2021/06/01 11:22:36;;;;;;;3.70;3.40;;;24.30;52.80;;;;;;5030201;28;20024;-78
2021/06/01 11:33:21;;;;;;;4.22;3.83;;;24.90;56.70;;;;;;5049115;28;20564;-79
2021/06/01 11:35:58;;;;;;;3.75;3.33;;;25.00;52.10;;;;;;5048573;28;20048;-79
2021/06/01 11:38:58;;;;;;;3.67;3.40;;;25.10;53.80;;;;;;5049737;28;20017;-78
2021/06/01 11:44:19;;;;;;;5.65;4.15;;;25.00;52.80;;;;;;5049980;28;20036;-79
2021/06/01 11:46:59;;;;;;;4.72;4.00;;;25.10;50.30;;;;;;5049816;28;20364;-79
2021/06/01 11:52:12;;;;;;;4.13;3.83;;;25.10;49.60;;;;;;5049691;28;20037;-79
2021/06/01 11:54:38;;;;;;;4.70;4.30;;;25.30;51.80;;;;;;5049394;28;20041;-79
2021/06/01 11:57:21;;;;;;;3.65;3.35;;;25.40;49.90;;;;;;5049641;28;20021;-79
2021/06/01 12:02:53;;;;;;;4.97;4.47;;;25.80;53.40;;;;;;5049428;28;20047;-79
2021/06/01 12:19:00;;;;;;;5.10;4.32;;;26.80;54.30;;;;;;5049235;28;20032;-79
2021/06/01 12:21:32;;;;;;;2.97;2.78;;;26.90;50.80;;;;;;5041922;28;20033;-79
2021/06/01 12:24:07;;;;;;;6.07;3.67;;;27.10;51.50;;;;;;5040129;28;20025;-79
2021/06/01 12:32:22;;;;;;;4.28;3.97;;;27.10;49.00;;;;;;5039167;28;20052;-78
2021/06/01 12:46:24;;;;;;;8.65;4.07;;;27.50;48.00;;;;;;5037099;28;20044;-79
2021/06/01 13:19:59;;;;;;;8.85;3.97;;;28.00;47.20;;;;;;5051464;28;20071;-78
2021/06/01 13:38:42;;;;;;;2.90;2.70;;;28.50;46.50;;;;;;5050876;28;20051;-78
2021/06/01 13:46:48;;;;;;;4.45;3.00;;;28.60;43.80;;;;;;5050265;28;20040;-78
2021/06/01 13:49:26;;;;;;;4.28;3.90;;;28.80;46.50;;;;;;5048827;28;20373;-78
2021/06/01 13:52:14;;;;;;;3.75;3.40;;;28.80;45.10;;;;;;5050161;28;20065;-78
2021/06/01 15:49:18;;;;;;;5.32;2.50;;;32.00;38.50;;;;;;5046838;28;20062;-79
2021/06/01 16:30:10;;;;;;;2.67;2.47;;;32.30;36.40;;;;;;5048160;28;20044;-79
2021/06/01 17:13:51;;;;;;;7.70;2.60;;;30.60;39.40;;;;;;5033569;28;20075;-77
2021/06/01 17:16:28;;;;;;;2.38;2.17;;;30.00;41.10;;;;;;5032049;28;20586;-77
2021/06/01 17:35:11;;;;;;;4.95;2.30;;;27.80;44.10;;;;;;5029219;28;20201;-76
2021/06/01 17:37:37;;;;;;;2.33;2.22;;;27.60;43.50;;;;;;5028465;28;20033;-76
2021/06/01 17:40:04;;;;;;;2.25;2.15;;;27.40;44.60;;;;;;5033506;28;20381;-76
2021/06/01 17:42:32;;;;;;;2.22;2.03;;;27.30;44.30;;;;;;5048132;28;20025;-75
2021/06/01 17:45:01;;;;;;;2.10;2.00;;;27.10;45.00;;;;;;5046533;28;20089;-75
2021/06/01 17:47:29;;;;;;;2.33;2.13;;;26.90;45.10;;;;;;5046987;28;20111;-75
2021/06/01 17:49:56;;;;;;;5.85;1.83;;;26.70;44.80;;;;;;5046387;28;20097;-75
2021/06/01 17:52:29;;;;;;;2.20;2.10;;;26.60;45.80;;;;;;5046283;28;20036;-75
2021/06/01 17:54:57;;;;;;;2.53;2.33;;;26.40;45.50;;;;;;5046707;28;20053;-75
2021/06/01 17:57:24;;;;;;;2.65;2.38;;;26.20;46.00;;;;;;5048126;28;20032;-75
2021/06/01 17:59:51;;;;;;;2.30;2.15;;;25.90;46.20;;;;;;5047514;28;20025;-76
2021/06/01 18:02:18;;;;;;;2.38;1.88;;;25.90;47.20;;;;;;5048037;28;20017;-75
2021/06/01 18:04:49;;;;;;;1.85;1.75;;;25.70;47.20;;;;;;5048332;28;20025;-76
2021/06/01 18:07:30;;;;;;;2.65;2.30;;;25.60;47.90;;;;;;5047357;28;20021;-76
2021/06/01 19:50:59;;;;;;;3.08;2.72;;;21.90;60.90;;;;;;5046622;28;20028;-77
2021/06/01 19:53:26;;;;;;;3.70;2.83;;;21.90;60.10;;;;;;5048649;28;20043;-77
2021/06/01 19:55:52;;;;;;;5.45;2.65;;;21.80;60.30;;;;;;5043501;28;20796;-77
2021/06/01 19:58:20;;;;;;;4.78;2.72;;;21.80;60.00;;;;;;5030091;28;20092;-76
2021/06/01 20:00:46;;;;;;;4.28;2.92;;;21.60;60.50;;;;;;5048755;28;20017;-76
2021/06/01 20:03:12;;;;;;;4.25;2.85;;;21.60;60.50;;;;;;5050288;28;20025;-76
2021/06/01 20:05:39;;;;;;;3.05;2.85;;;21.50;60.70;;;;;;5049075;28;20031;-76
2021/06/01 20:08:10;;;;;;;4.82;2.72;;;21.50;61.20;;;;;;5049771;28;20604;-76
2021/06/01 20:10:36;;;;;;;2.95;2.47;;;21.50;61.40;;;;;;5049416;28;20025;-76
2021/06/01 20:13:02;;;;;;;4.80;2.70;;;21.40;60.70;;;;;;5049775;28;20433;-77
2021/06/01 20:15:41;;;;;;;5.45;2.55;;;21.50;61.40;;;;;;5050141;28;20405;-76
2021/06/01 20:18:07;;;;;;;2.83;2.63;;;21.30;61.50;;;;;;5050083;28;20090;-76
2021/06/01 20:20:37;;;;;;;2.75;2.58;;;21.30;61.80;;;;;;5047319;27;20022;-76
2021/06/01 20:23:06;;;;;;;8.25;4.05;;;21.30;62.70;;;;;;5029850;28;20014;-76
2021/06/01 20:25:32;;;;;;;3.50;3.20;;;21.20;62.30;;;;;;5030604;28;20102;-76
2021/06/01 20:28:01;;;;;;;4.05;3.67;;;21.30;62.50;;;;;;5028301;28;20121;-76
2021/06/01 20:33:07;;;;;;;8.23;3.53;;;21.00;63.10;;;;;;5049190;28;20516;-76
2021/06/01 20:35:34;;;;;;;3.08;2.78;;;21.00;64.10;;;;;;5029527;28;20048;-79
2021/06/01 20:38:00;;;;;;;3.20;3.00;;;20.90;62.80;;;;;;5032032;28;20032;-79